sensor_id;sensor_type;location;lat;lon;timestamp;temperature;humidity
9329;DHT22;4703;48.748;19.142;2022-10-16T00:01:38;12.80;99.90
9329;DHT22;4703;48.748;19.142;2022-10-16T00:04:06;15.30;99.90
9329;DHT22;4703;48.748;19.142;2022-10-16T00:06:33;12.90;99.90
9329;DHT22;4703;48.748;19.142;2022-10-16T00:09:00;13.60;99.90
9329;DHT22;4703;48.748;19.142;2022-10-16T00:11:30;12.80;99.90
9329;DHT22;4703;48.748;19.142;2022-10-16T00:14:01;15.50;99.90
9329;DHT22;4703;48.748;19.142;2022-10-16T00:16:29;12.80;99.90
9329;DHT22;4703;48.748;19.142;2022-10-16T00:18:57;12.80;99.90
9329;DHT22;4703;48.748;19.142;2022-10-16T00:21:26;13.90;99.90
9329;DHT22;4703;48.748;19.142;2022-10-16T00:24:00;12.80;99.90
9329;DHT22;4703;48.748;19.142;2022-10-16T00:26:33;14.10;99.90
9329;DHT22;4703;48.748;19.142;2022-10-16T00:29:00;15.40;99.90
9329;DHT22;4703;48.748;19.142;2022-10-16T00:31:27;15.20;99.90
9329;DHT22;4703;48.748;19.142;2022-10-16T00:33:54;14.60;99.90
9329;DHT22;4703;48.748;19.142;2022-10-16T00:36:23;13.80;99.90
9329;DHT22;4703;48.748;19.142;2022-10-16T00:38:56;14.50;99.90
9329;DHT22;4703;48.748;19.142;2022-10-16T00:41:31;14.90;99.90
9329;DHT22;4703;48.748;19.142;2022-10-16T00:44:01;15.00;99.90
9329;DHT22;4703;48.748;19.142;2022-10-16T00:46:41;13.90;99.90
9329;DHT22;4703;48.748;19.142;2022-10-16T00:49:15;14.30;99.90
9329;DHT22;4703;48.748;19.142;2022-10-16T00:51:48;13.90;99.90
9329;DHT22;4703;48.748;19.142;2022-10-16T00:54:26;14.20;99.90
9329;DHT22;4703;48.748;19.142;2022-10-16T00:56:57;14.00;99.90
9329;DHT22;4703;48.748;19.142;2022-10-16T00:59:33;14.20;99.90
9329;DHT22;4703;48.748;19.142;2022-10-16T01:02:04;12.70;99.90
9329;DHT22;4703;48.748;19.142;2022-10-16T01:04:39;12.70;99.90
9329;DHT22;4703;48.748;19.142;2022-10-16T01:13:01;12.70;99.90
9329;DHT22;4703;48.748;19.142;2022-10-16T01:18:16;15.40;99.90
9329;DHT22;4703;48.748;19.142;2022-10-16T01:20:55;12.70;99.90
9329;DHT22;4703;48.748;19.142;2022-10-16T01:26:14;13.50;99.90
9329;DHT22;4703;48.748;19.142;2022-10-16T01:31:25;14.60;99.90
9329;DHT22;4703;48.748;19.142;2022-10-16T01:34:02;12.60;99.90
9329;DHT22;4703;48.748;19.142;2022-10-16T01:36:45;12.60;99.90
9329;DHT22;4703;48.748;19.142;2022-10-16T01:39:35;12.60;99.90
9329;DHT22;4703;48.748;19.142;2022-10-16T01:42:16;12.60;99.90
9329;DHT22;4703;48.748;19.142;2022-10-16T01:44:48;12.60;99.90
9329;DHT22;4703;48.748;19.142;2022-10-16T01:47:17;12.60;99.90
9329;DHT22;4703;48.748;19.142;2022-10-16T01:49:50;12.60;99.90
9329;DHT22;4703;48.748;19.142;2022-10-16T01:52:21;14.80;99.90
9329;DHT22;4703;48.748;19.142;2022-10-16T01:54:52;15.20;99.90
9329;DHT22;4703;48.748;19.142;2022-10-16T01:57:21;12.60;99.90
9329;DHT22;4703;48.748;19.142;2022-10-16T01:59:53;14.30;99.90
9329;DHT22;4703;48.748;19.142;2022-10-16T02:02:25;12.70;99.90
9329;DHT22;4703;48.748;19.142;2022-10-16T02:05:34;12.60;99.90
9329;DHT22;4703;48.748;19.142;2022-10-16T02:08:00;12.60;99.90
9329;DHT22;4703;48.748;19.142;2022-10-16T02:10:32;13.80;99.90
9329;DHT22;4703;48.748;19.142;2022-10-16T02:13:41;12.50;99.90
9329;DHT22;4703;48.748;19.142;2022-10-16T02:16:13;12.60;99.90
9329;DHT22;4703;48.748;19.142;2022-10-16T02:18:42;12.60;99.90
9329;DHT22;4703;48.748;19.142;2022-10-16T02:21:21;12.50;99.90
9329;DHT22;4703;48.748;19.142;2022-10-16T02:26:48;12.60;99.90
9329;DHT22;4703;48.748;19.142;2022-10-16T02:29:22;12.90;99.90
9329;DHT22;4703;48.748;19.142;2022-10-16T02:31:55;13.80;99.90
9329;DHT22;4703;48.748;19.142;2022-10-16T02:34:25;13.30;99.90
9329;DHT22;4703;48.748;19.142;2022-10-16T02:36:55;12.60;99.90
9329;DHT22;4703;48.748;19.142;2022-10-16T02:39:22;12.60;99.90
9329;DHT22;4703;48.748;19.142;2022-10-16T02:41:50;12.60;99.90
9329;DHT22;4703;48.748;19.142;2022-10-16T02:44:17;12.60;99.90
9329;DHT22;4703;48.748;19.142;2022-10-16T02:46:44;15.80;99.90
9329;DHT22;4703;48.748;19.142;2022-10-16T02:49:10;12.60;99.90
9329;DHT22;4703;48.748;19.142;2022-10-16T02:51:37;12.60;99.90
9329;DHT22;4703;48.748;19.142;2022-10-16T02:54:04;13.60;99.90
9329;DHT22;4703;48.748;19.142;2022-10-16T02:56:32;12.90;99.90
9329;DHT22;4703;48.748;19.142;2022-10-16T02:58:59;12.50;99.90
9329;DHT22;4703;48.748;19.142;2022-10-16T03:01:26;14.80;99.90
9329;DHT22;4703;48.748;19.142;2022-10-16T03:03:53;13.50;99.90
9329;DHT22;4703;48.748;19.142;2022-10-16T03:06:20;14.90;99.90
9329;DHT22;4703;48.748;19.142;2022-10-16T03:08:47;13.30;99.90
9329;DHT22;4703;48.748;19.142;2022-10-16T03:11:14;12.50;99.90
9329;DHT22;4703;48.748;19.142;2022-10-16T03:13:41;12.50;99.90
9329;DHT22;4703;48.748;19.142;2022-10-16T03:16:08;12.60;99.90
9329;DHT22;4703;48.748;19.142;2022-10-16T03:18:35;15.20;99.90
9329;DHT22;4703;48.748;19.142;2022-10-16T03:21:02;14.60;99.90
9329;DHT22;4703;48.748;19.142;2022-10-16T03:23:29;12.60;99.90
9329;DHT22;4703;48.748;19.142;2022-10-16T03:26:01;15.60;99.90
9329;DHT22;4703;48.748;19.142;2022-10-16T03:28:28;14.20;99.90
9329;DHT22;4703;48.748;19.142;2022-10-16T03:30:55;12.50;99.90
9329;DHT22;4703;48.748;19.142;2022-10-16T03:33:22;12.40;99.90
9329;DHT22;4703;48.748;19.142;2022-10-16T03:35:54;13.90;99.90
9329;DHT22;4703;48.748;19.142;2022-10-16T03:38:21;13.50;99.90
9329;DHT22;4703;48.748;19.142;2022-10-16T03:40:48;12.40;99.90
9329;DHT22;4703;48.748;19.142;2022-10-16T03:43:15;12.50;99.90
9329;DHT22;4703;48.748;19.142;2022-10-16T03:45:42;13.10;99.90
9329;DHT22;4703;48.748;19.142;2022-10-16T03:48:09;13.80;99.90
9329;DHT22;4703;48.748;19.142;2022-10-16T03:50:36;13.30;99.90
9329;DHT22;4703;48.748;19.142;2022-10-16T03:53:03;12.40;99.90
9329;DHT22;4703;48.748;19.142;2022-10-16T03:55:30;15.10;99.90
9329;DHT22;4703;48.748;19.142;2022-10-16T03:57:57;14.00;99.90
9329;DHT22;4703;48.748;19.142;2022-10-16T04:00:24;15.20;99.90
9329;DHT22;4703;48.748;19.142;2022-10-16T04:02:51;12.40;99.90
9329;DHT22;4703;48.748;19.142;2022-10-16T04:05:18;12.60;99.90
9329;DHT22;4703;48.748;19.142;2022-10-16T04:07:45;12.40;99.90
9329;DHT22;4703;48.748;19.142;2022-10-16T04:10:12;12.40;99.90
9329;DHT22;4703;48.748;19.142;2022-10-16T04:12:39;14.20;99.90
9329;DHT22;4703;48.748;19.142;2022-10-16T04:15:06;12.40;99.90
9329;DHT22;4703;48.748;19.142;2022-10-16T04:17:33;12.40;99.90
9329;DHT22;4703;48.748;19.142;2022-10-16T04:20:00;14.70;99.90
9329;DHT22;4703;48.748;19.142;2022-10-16T04:22:27;14.40;99.90
9329;DHT22;4703;48.748;19.142;2022-10-16T04:24:54;13.20;99.90
9329;DHT22;4703;48.748;19.142;2022-10-16T04:27:21;13.90;99.90
9329;DHT22;4703;48.748;19.142;2022-10-16T04:29:48;14.70;99.90
9329;DHT22;4703;48.748;19.142;2022-10-16T04:32:15;13.40;99.90
9329;DHT22;4703;48.748;19.142;2022-10-16T04:34:42;14.30;99.90
9329;DHT22;4703;48.748;19.142;2022-10-16T04:37:09;15.10;99.90
9329;DHT22;4703;48.748;19.142;2022-10-16T04:39:36;15.30;99.90
9329;DHT22;4703;48.748;19.142;2022-10-16T04:42:03;12.60;99.90
9329;DHT22;4703;48.748;19.142;2022-10-16T04:44:30;13.40;99.90
9329;DHT22;4703;48.748;19.142;2022-10-16T04:46:57;12.50;99.90
9329;DHT22;4703;48.748;19.142;2022-10-16T04:49:24;14.70;99.90
9329;DHT22;4703;48.748;19.142;2022-10-16T04:51:51;13.40;99.90
9329;DHT22;4703;48.748;19.142;2022-10-16T04:54:18;14.50;99.90
9329;DHT22;4703;48.748;19.142;2022-10-16T04:56:45;14.80;99.90
9329;DHT22;4703;48.748;19.142;2022-10-16T04:59:18;14.00;99.90
9329;DHT22;4703;48.748;19.142;2022-10-16T05:01:45;14.90;99.90
9329;DHT22;4703;48.748;19.142;2022-10-16T05:04:12;14.50;99.90
9329;DHT22;4703;48.748;19.142;2022-10-16T05:06:41;13.60;99.90
9329;DHT22;4703;48.748;19.142;2022-10-16T05:09:09;13.60;99.90
9329;DHT22;4703;48.748;19.142;2022-10-16T05:11:36;13.20;99.90
9329;DHT22;4703;48.748;19.142;2022-10-16T05:14:03;14.60;99.90
9329;DHT22;4703;48.748;19.142;2022-10-16T05:16:30;14.70;99.90
9329;DHT22;4703;48.748;19.142;2022-10-16T05:18:57;12.40;99.90
9329;DHT22;4703;48.748;19.142;2022-10-16T05:21:44;12.40;99.90
9329;DHT22;4703;48.748;19.142;2022-10-16T05:24:11;14.40;99.90
9329;DHT22;4703;48.748;19.142;2022-10-16T05:26:38;14.90;99.90
9329;DHT22;4703;48.748;19.142;2022-10-16T05:29:05;14.30;99.90
9329;DHT22;4703;48.748;19.142;2022-10-16T05:31:32;13.60;99.90
9329;DHT22;4703;48.748;19.142;2022-10-16T05:33:59;12.50;99.90
9329;DHT22;4703;48.748;19.142;2022-10-16T05:36:27;14.70;99.90
9329;DHT22;4703;48.748;19.142;2022-10-16T05:38:54;14.00;99.90
9329;DHT22;4703;48.748;19.142;2022-10-16T05:41:21;12.40;99.90
9329;DHT22;4703;48.748;19.142;2022-10-16T05:43:49;14.10;99.90
9329;DHT22;4703;48.748;19.142;2022-10-16T05:46:17;15.00;99.90
9329;DHT22;4703;48.748;19.142;2022-10-16T05:48:44;12.40;99.90
9329;DHT22;4703;48.748;19.142;2022-10-16T05:51:12;13.70;99.90
9329;DHT22;4703;48.748;19.142;2022-10-16T05:53:41;14.20;99.90
9329;DHT22;4703;48.748;19.142;2022-10-16T05:56:10;15.20;99.90
9329;DHT22;4703;48.748;19.142;2022-10-16T05:58:39;14.50;99.90
9329;DHT22;4703;48.748;19.142;2022-10-16T06:03:40;12.50;99.90
9329;DHT22;4703;48.748;19.142;2022-10-16T06:06:15;13.80;99.90
9329;DHT22;4703;48.748;19.142;2022-10-16T06:08:44;12.40;99.90
9329;DHT22;4703;48.748;19.142;2022-10-16T06:11:15;15.30;99.90
9329;DHT22;4703;48.748;19.142;2022-10-16T06:13:43;12.40;99.90
9329;DHT22;4703;48.748;19.142;2022-10-16T06:16:13;12.50;99.90
9329;DHT22;4703;48.748;19.142;2022-10-16T06:18:40;12.50;99.90
9329;DHT22;4703;48.748;19.142;2022-10-16T06:21:14;12.50;99.90
9329;DHT22;4703;48.748;19.142;2022-10-16T06:23:43;12.50;99.90
9329;DHT22;4703;48.748;19.142;2022-10-16T06:26:14;15.10;99.90
9329;DHT22;4703;48.748;19.142;2022-10-16T06:28:43;12.60;99.90
9329;DHT22;4703;48.748;19.142;2022-10-16T06:31:11;12.60;99.90
9329;DHT22;4703;48.748;19.142;2022-10-16T06:33:39;12.70;99.90
9329;DHT22;4703;48.748;19.142;2022-10-16T06:36:12;12.70;99.90
9329;DHT22;4703;48.748;19.142;2022-10-16T06:38:41;14.40;99.90
9329;DHT22;4703;48.748;19.142;2022-10-16T06:41:11;15.50;99.90
9329;DHT22;4703;48.748;19.142;2022-10-16T06:43:40;12.90;99.90
9329;DHT22;4703;48.748;19.142;2022-10-16T06:46:09;15.30;99.90
9329;DHT22;4703;48.748;19.142;2022-10-16T06:48:37;12.90;99.90
9329;DHT22;4703;48.748;19.142;2022-10-16T06:51:25;14.10;99.90
9329;DHT22;4703;48.748;19.142;2022-10-16T06:53:54;13.10;99.90
9329;DHT22;4703;48.748;19.142;2022-10-16T06:56:33;14.40;99.90
9329;DHT22;4703;48.748;19.142;2022-10-16T06:59:00;13.20;99.90
9329;DHT22;4703;48.748;19.142;2022-10-16T07:01:28;15.90;99.90
9329;DHT22;4703;48.748;19.142;2022-10-16T07:03:56;14.30;99.90
9329;DHT22;4703;48.748;19.142;2022-10-16T07:06:25;15.10;99.90
9329;DHT22;4703;48.748;19.142;2022-10-16T07:08:53;14.60;99.90
9329;DHT22;4703;48.748;19.142;2022-10-16T07:11:22;13.30;99.90
9329;DHT22;4703;48.748;19.142;2022-10-16T07:13:51;14.90;99.90
9329;DHT22;4703;48.748;19.142;2022-10-16T07:16:27;13.40;99.90
9329;DHT22;4703;48.748;19.142;2022-10-16T07:18:56;13.40;99.90
9329;DHT22;4703;48.748;19.142;2022-10-16T07:21:29;14.90;99.90
9329;DHT22;4703;48.748;19.142;2022-10-16T07:24:00;15.50;99.90
9329;DHT22;4703;48.748;19.142;2022-10-16T07:26:30;15.20;99.90
9329;DHT22;4703;48.748;19.142;2022-10-16T07:28:57;15.00;99.90
9329;DHT22;4703;48.748;19.142;2022-10-16T07:31:25;14.50;99.90
9329;DHT22;4703;48.748;19.142;2022-10-16T07:33:52;13.70;99.90
9329;DHT22;4703;48.748;19.142;2022-10-16T07:36:20;15.10;99.90
9329;DHT22;4703;48.748;19.142;2022-10-16T07:38:47;16.20;99.90
9329;DHT22;4703;48.748;19.142;2022-10-16T07:41:16;15.80;99.90
9329;DHT22;4703;48.748;19.142;2022-10-16T07:43:51;13.80;99.90
9329;DHT22;4703;48.748;19.142;2022-10-16T07:46:21;16.10;99.90
9329;DHT22;4703;48.748;19.142;2022-10-16T07:48:48;15.60;99.90
9329;DHT22;4703;48.748;19.142;2022-10-16T07:51:18;16.80;99.90
9329;DHT22;4703;48.748;19.142;2022-10-16T07:53:47;16.40;99.90
9329;DHT22;4703;48.748;19.142;2022-10-16T07:56:15;14.30;99.90
9329;DHT22;4703;48.748;19.142;2022-10-16T07:58:43;16.90;99.90
9329;DHT22;4703;48.748;19.142;2022-10-16T08:01:12;15.90;99.90
9329;DHT22;4703;48.748;19.142;2022-10-16T08:03:42;14.50;99.90
9329;DHT22;4703;48.748;19.142;2022-10-16T08:06:10;15.40;99.90
9329;DHT22;4703;48.748;19.142;2022-10-16T08:08:37;15.30;99.90
9329;DHT22;4703;48.748;19.142;2022-10-16T08:11:04;17.00;99.90
9329;DHT22;4703;48.748;19.142;2022-10-16T08:13:32;14.60;99.90
9329;DHT22;4703;48.748;19.142;2022-10-16T08:15:59;14.70;99.90
9329;DHT22;4703;48.748;19.142;2022-10-16T08:18:26;14.70;99.90
9329;DHT22;4703;48.748;19.142;2022-10-16T08:20:57;16.30;99.90
9329;DHT22;4703;48.748;19.142;2022-10-16T08:23:26;16.30;99.90
9329;DHT22;4703;48.748;19.142;2022-10-16T08:25:55;14.80;99.90
9329;DHT22;4703;48.748;19.142;2022-10-16T08:28:23;15.70;99.90
9329;DHT22;4703;48.748;19.142;2022-10-16T08:30:50;15.90;99.90
9329;DHT22;4703;48.748;19.142;2022-10-16T08:33:17;16.30;99.90
9329;DHT22;4703;48.748;19.142;2022-10-16T08:35:53;14.80;99.90
9329;DHT22;4703;48.748;19.142;2022-10-16T08:38:21;15.00;99.90
9329;DHT22;4703;48.748;19.142;2022-10-16T08:40:48;15.20;99.90
9329;DHT22;4703;48.748;19.142;2022-10-16T08:43:41;16.10;99.90
9329;DHT22;4703;48.748;19.142;2022-10-16T08:49:16;14.90;99.90
9329;DHT22;4703;48.748;19.142;2022-10-16T08:51:44;16.40;99.90
9329;DHT22;4703;48.748;19.142;2022-10-16T08:57:20;15.10;99.90
9329;DHT22;4703;48.748;19.142;2022-10-16T08:59:51;15.90;99.90
9329;DHT22;4703;48.748;19.142;2022-10-16T09:02:40;15.90;99.90
9329;DHT22;4703;48.748;19.142;2022-10-16T09:05:22;15.00;99.90
9329;DHT22;4703;48.748;19.142;2022-10-16T09:08:14;15.00;99.90
9329;DHT22;4703;48.748;19.142;2022-10-16T09:16:52;15.00;99.90
9329;DHT22;4703;48.748;19.142;2022-10-16T09:19:28;15.00;99.90
9329;DHT22;4703;48.748;19.142;2022-10-16T09:22:01;15.00;99.90
9329;DHT22;4703;48.748;19.142;2022-10-16T09:24:35;15.70;99.90
9329;DHT22;4703;48.748;19.142;2022-10-16T09:27:02;16.60;99.90
9329;DHT22;4703;48.748;19.142;2022-10-16T09:29:29;16.20;99.90
9329;DHT22;4703;48.748;19.142;2022-10-16T09:32:12;15.20;99.90
9329;DHT22;4703;48.748;19.142;2022-10-16T09:34:46;16.00;99.90
9329;DHT22;4703;48.748;19.142;2022-10-16T09:37:19;17.00;99.90
9329;DHT22;4703;48.748;19.142;2022-10-16T09:39:49;15.40;99.90
9329;DHT22;4703;48.748;19.142;2022-10-16T09:42:20;15.50;99.90
9329;DHT22;4703;48.748;19.142;2022-10-16T09:44:50;16.50;99.90
9329;DHT22;4703;48.748;19.142;2022-10-16T09:47:21;16.10;99.90
9329;DHT22;4703;48.748;19.142;2022-10-16T09:49:59;16.10;99.90
9329;DHT22;4703;48.748;19.142;2022-10-16T09:52:33;16.70;99.90
9329;DHT22;4703;48.748;19.142;2022-10-16T09:55:09;16.00;99.90
9329;DHT22;4703;48.748;19.142;2022-10-16T09:57:53;16.00;99.90
9329;DHT22;4703;48.748;19.142;2022-10-16T10:00:22;16.00;99.90
9329;DHT22;4703;48.748;19.142;2022-10-16T10:02:51;17.10;99.90
9329;DHT22;4703;48.748;19.142;2022-10-16T10:05:29;16.20;99.90
9329;DHT22;4703;48.748;19.142;2022-10-16T10:07:58;16.40;99.90
9329;DHT22;4703;48.748;19.142;2022-10-16T10:10:28;17.90;99.90
9329;DHT22;4703;48.748;19.142;2022-10-16T10:12:57;16.90;99.90
9329;DHT22;4703;48.748;19.142;2022-10-16T10:15:24;16.80;99.90
9329;DHT22;4703;48.748;19.142;2022-10-16T10:17:55;16.90;99.90
9329;DHT22;4703;48.748;19.142;2022-10-16T10:20:31;16.90;99.90
9329;DHT22;4703;48.748;19.142;2022-10-16T10:23:13;16.90;99.90
9329;DHT22;4703;48.748;19.142;2022-10-16T10:26:16;17.00;99.90
9329;DHT22;4703;48.748;19.142;2022-10-16T10:34:38;17.20;99.90
9329;DHT22;4703;48.748;19.142;2022-10-16T10:37:26;17.30;99.90
9329;DHT22;4703;48.748;19.142;2022-10-16T10:40:30;17.30;99.90
9329;DHT22;4703;48.748;19.142;2022-10-16T10:43:39;17.40;99.90
9329;DHT22;4703;48.748;19.142;2022-10-16T10:54:32;17.60;99.90
9329;DHT22;4703;48.748;19.142;2022-10-16T10:57:21;18.90;99.90
9329;DHT22;4703;48.748;19.142;2022-10-16T11:02:58;17.60;99.90
9329;DHT22;4703;48.748;19.142;2022-10-16T11:05:58;18.50;99.90
9329;DHT22;4703;48.748;19.142;2022-10-16T11:08:43;17.70;99.90
9329;DHT22;4703;48.748;19.142;2022-10-16T11:11:34;17.40;99.90
9329;DHT22;4703;48.748;19.142;2022-10-16T11:14:19;17.30;99.90
9329;DHT22;4703;48.748;19.142;2022-10-16T11:17:01;17.30;99.90
9329;DHT22;4703;48.748;19.142;2022-10-16T11:19:54;18.00;99.90
9329;DHT22;4703;48.748;19.142;2022-10-16T11:22:36;17.90;99.90
9329;DHT22;4703;48.748;19.142;2022-10-16T11:25:21;17.60;99.90
9329;DHT22;4703;48.748;19.142;2022-10-16T11:30:27;17.20;99.90
9329;DHT22;4703;48.748;19.142;2022-10-16T11:35:47;17.60;99.90
9329;DHT22;4703;48.748;19.142;2022-10-16T11:38:49;17.10;99.90
9329;DHT22;4703;48.748;19.142;2022-10-16T11:47:41;17.00;99.90
9329;DHT22;4703;48.748;19.142;2022-10-16T11:51:09;16.90;99.90
9329;DHT22;4703;48.748;19.142;2022-10-16T11:56:15;17.00;99.90
9329;DHT22;4703;48.748;19.142;2022-10-16T11:58:52;17.40;99.90
9329;DHT22;4703;48.748;19.142;2022-10-16T12:01:49;17.00;99.90
9329;DHT22;4703;48.748;19.142;2022-10-16T12:05:06;17.00;99.90
9329;DHT22;4703;48.748;19.142;2022-10-16T12:07:19;17.00;99.90
9329;DHT22;4703;48.748;19.142;2022-10-16T12:09:49;17.10;99.90
9329;DHT22;4703;48.748;19.142;2022-10-16T12:12:42;17.00;99.90
9329;DHT22;4703;48.748;19.142;2022-10-16T12:15:25;17.00;99.90
9329;DHT22;4703;48.748;19.142;2022-10-16T12:18:24;17.00;99.90
9329;DHT22;4703;48.748;19.142;2022-10-16T12:20:56;17.00;99.90
9329;DHT22;4703;48.748;19.142;2022-10-16T12:23:26;17.10;99.90
9329;DHT22;4703;48.748;19.142;2022-10-16T12:25:58;17.10;99.90
9329;DHT22;4703;48.748;19.142;2022-10-16T12:28:30;17.10;99.90
9329;DHT22;4703;48.748;19.142;2022-10-16T12:31:06;17.10;99.90
9329;DHT22;4703;48.748;19.142;2022-10-16T12:33:52;18.00;99.90
9329;DHT22;4703;48.748;19.142;2022-10-16T12:36:32;18.50;99.90
9329;DHT22;4703;48.748;19.142;2022-10-16T12:39:00;17.60;99.90
9329;DHT22;4703;48.748;19.142;2022-10-16T12:41:30;17.10;99.90
9329;DHT22;4703;48.748;19.142;2022-10-16T12:43:59;17.10;99.90
9329;DHT22;4703;48.748;19.142;2022-10-16T12:51:41;17.10;99.90
9329;DHT22;4703;48.748;19.142;2022-10-16T13:06:18;17.40;99.90
9329;DHT22;4703;48.748;19.142;2022-10-16T13:20:21;17.50;99.90
9329;DHT22;4703;48.748;19.142;2022-10-16T13:23:18;17.50;99.90
9329;DHT22;4703;48.748;19.142;2022-10-16T13:28:43;17.60;99.90
9329;DHT22;4703;48.748;19.142;2022-10-16T13:31:21;18.30;99.90
9329;DHT22;4703;48.748;19.142;2022-10-16T13:33:53;17.60;99.90
9329;DHT22;4703;48.748;19.142;2022-10-16T13:36:30;18.40;99.90
9329;DHT22;4703;48.748;19.142;2022-10-16T13:39:28;17.60;99.90
9329;DHT22;4703;48.748;19.142;2022-10-16T13:42:06;17.60;99.90
9329;DHT22;4703;48.748;19.142;2022-10-16T13:44:49;17.70;99.90
9329;DHT22;4703;48.748;19.142;2022-10-16T13:47:28;17.70;99.90
9329;DHT22;4703;48.748;19.142;2022-10-16T13:50:11;17.70;99.90
9329;DHT22;4703;48.748;19.142;2022-10-16T13:52:40;17.70;99.90
9329;DHT22;4703;48.748;19.142;2022-10-16T13:55:15;19.10;99.90
9329;DHT22;4703;48.748;19.142;2022-10-16T13:57:44;17.80;99.90
9329;DHT22;4703;48.748;19.142;2022-10-16T14:00:38;17.70;99.90
9329;DHT22;4703;48.748;19.142;2022-10-16T14:03:11;17.80;99.90
9329;DHT22;4703;48.748;19.142;2022-10-16T14:05:52;17.80;99.90
9329;DHT22;4703;48.748;19.142;2022-10-16T14:08:21;17.70;99.90
9329;DHT22;4703;48.748;19.142;2022-10-16T14:10:50;17.70;99.90
9329;DHT22;4703;48.748;19.142;2022-10-16T14:16:05;17.70;99.90
9329;DHT22;4703;48.748;19.142;2022-10-16T14:18:34;17.70;99.90
9329;DHT22;4703;48.748;19.142;2022-10-16T14:21:12;19.10;99.90
9329;DHT22;4703;48.748;19.142;2022-10-16T14:23:42;18.40;99.90
9329;DHT22;4703;48.748;19.142;2022-10-16T14:28:37;18.10;99.90
9329;DHT22;4703;48.748;19.142;2022-10-16T14:33:46;18.30;99.90
9329;DHT22;4703;48.748;19.142;2022-10-16T14:36:15;17.60;99.90
9329;DHT22;4703;48.748;19.142;2022-10-16T14:38:55;18.40;99.90
9329;DHT22;4703;48.748;19.142;2022-10-16T14:41:25;17.40;99.90
9329;DHT22;4703;48.748;19.142;2022-10-16T14:43:55;18.20;99.90
9329;DHT22;4703;48.748;19.142;2022-10-16T14:46:37;17.20;99.90
9329;DHT22;4703;48.748;19.142;2022-10-16T14:51:39;17.20;99.90
9329;DHT22;4703;48.748;19.142;2022-10-16T14:54:20;18.80;99.90
9329;DHT22;4703;48.748;19.142;2022-10-16T14:56:56;17.20;99.90
9329;DHT22;4703;48.748;19.142;2022-10-16T14:59:31;17.20;99.90
9329;DHT22;4703;48.748;19.142;2022-10-16T15:02:15;17.20;99.90
9329;DHT22;4703;48.748;19.142;2022-10-16T15:04:44;17.80;99.90
9329;DHT22;4703;48.748;19.142;2022-10-16T15:07:11;17.30;99.90
9329;DHT22;4703;48.748;19.142;2022-10-16T15:09:37;17.80;99.90
9329;DHT22;4703;48.748;19.142;2022-10-16T15:12:04;17.30;99.90
9329;DHT22;4703;48.748;19.142;2022-10-16T15:14:31;19.40;99.90
9329;DHT22;4703;48.748;19.142;2022-10-16T15:16:59;18.30;99.90
9329;DHT22;4703;48.748;19.142;2022-10-16T15:19:26;17.10;99.90
9329;DHT22;4703;48.748;19.142;2022-10-16T15:21:53;17.60;99.90
9329;DHT22;4703;48.748;19.142;2022-10-16T15:24:20;18.20;99.90
9329;DHT22;4703;48.748;19.142;2022-10-16T15:26:47;16.90;99.90
9329;DHT22;4703;48.748;19.142;2022-10-16T15:29:16;16.80;99.90
9329;DHT22;4703;48.748;19.142;2022-10-16T15:31:42;17.80;99.90
9329;DHT22;4703;48.748;19.142;2022-10-16T15:34:10;17.30;99.90
9329;DHT22;4703;48.748;19.142;2022-10-16T15:36:38;17.70;99.90
9329;DHT22;4703;48.748;19.142;2022-10-16T15:39:13;16.50;99.90
9329;DHT22;4703;48.748;19.142;2022-10-16T15:41:45;16.50;99.90
9329;DHT22;4703;48.748;19.142;2022-10-16T15:44:18;16.90;99.90
9329;DHT22;4703;48.748;19.142;2022-10-16T15:46:45;17.60;99.90
9329;DHT22;4703;48.748;19.142;2022-10-16T15:49:12;16.80;99.90
9329;DHT22;4703;48.748;19.142;2022-10-16T15:51:41;15.90;99.90
9329;DHT22;4703;48.748;19.142;2022-10-16T15:54:08;16.10;99.90
9329;DHT22;4703;48.748;19.142;2022-10-16T15:56:35;16.90;99.90
9329;DHT22;4703;48.748;19.142;2022-10-16T15:59:04;16.00;99.90
9329;DHT22;4703;48.748;19.142;2022-10-16T16:01:35;15.60;99.90
9329;DHT22;4703;48.748;19.142;2022-10-16T16:04:02;17.10;99.90
9329;DHT22;4703;48.748;19.142;2022-10-16T16:06:41;15.40;99.90
9329;DHT22;4703;48.748;19.142;2022-10-16T16:09:12;15.70;99.90
9329;DHT22;4703;48.748;19.142;2022-10-16T16:11:40;17.90;99.90
9329;DHT22;4703;48.748;19.142;2022-10-16T16:14:12;15.10;99.90
9329;DHT22;4703;48.748;19.142;2022-10-16T16:16:39;17.50;99.90
9329;DHT22;4703;48.748;19.142;2022-10-16T16:19:07;17.60;99.90
9329;DHT22;4703;48.748;19.142;2022-10-16T16:21:38;16.80;99.90
9329;DHT22;4703;48.748;19.142;2022-10-16T16:24:05;17.20;99.90
9329;DHT22;4703;48.748;19.142;2022-10-16T16:26:35;14.70;99.90
9329;DHT22;4703;48.748;19.142;2022-10-16T16:29:05;14.70;99.90
9329;DHT22;4703;48.748;19.142;2022-10-16T16:31:33;16.90;99.90
9329;DHT22;4703;48.748;19.142;2022-10-16T16:34:01;15.70;99.90
9329;DHT22;4703;48.748;19.142;2022-10-16T16:36:29;16.50;99.90
9329;DHT22;4703;48.748;19.142;2022-10-16T16:38:56;14.40;99.90
9329;DHT22;4703;48.748;19.142;2022-10-16T16:41:27;16.00;99.90
9329;DHT22;4703;48.748;19.142;2022-10-16T16:43:55;17.10;99.90
9329;DHT22;4703;48.748;19.142;2022-10-16T16:46:22;17.40;99.90
9329;DHT22;4703;48.748;19.142;2022-10-16T16:48:50;14.20;99.90
9329;DHT22;4703;48.748;19.142;2022-10-16T16:51:19;16.40;99.90
9329;DHT22;4703;48.748;19.142;2022-10-16T16:53:49;16.10;99.90
9329;DHT22;4703;48.748;19.142;2022-10-16T16:56:18;16.60;99.90
9329;DHT22;4703;48.748;19.142;2022-10-16T16:58:48;14.10;99.90
9329;DHT22;4703;48.748;19.142;2022-10-16T17:01:16;14.30;99.90
9329;DHT22;4703;48.748;19.142;2022-10-16T17:03:48;14.30;99.90
9329;DHT22;4703;48.748;19.142;2022-10-16T17:06:23;14.40;99.90
9329;DHT22;4703;48.748;19.142;2022-10-16T17:08:52;16.30;99.90
9329;DHT22;4703;48.748;19.142;2022-10-16T17:11:22;15.20;99.90
9329;DHT22;4703;48.748;19.142;2022-10-16T17:13:51;16.30;99.90
9329;DHT22;4703;48.748;19.142;2022-10-16T17:16:29;16.80;99.90
9329;DHT22;4703;48.748;19.142;2022-10-16T17:19:03;16.20;99.90
9329;DHT22;4703;48.748;19.142;2022-10-16T17:21:31;16.10;99.90
9329;DHT22;4703;48.748;19.142;2022-10-16T17:23:59;15.30;99.90
9329;DHT22;4703;48.748;19.142;2022-10-16T17:26:27;14.20;99.90
9329;DHT22;4703;48.748;19.142;2022-10-16T17:28:57;13.40;99.90
9329;DHT22;4703;48.748;19.142;2022-10-16T17:31:31;13.40;99.90
9329;DHT22;4703;48.748;19.142;2022-10-16T17:34:03;13.30;99.90
9329;DHT22;4703;48.748;19.142;2022-10-16T17:36:34;15.70;99.90
9329;DHT22;4703;48.748;19.142;2022-10-16T17:39:05;16.30;99.90
9329;DHT22;4703;48.748;19.142;2022-10-16T17:41:34;13.20;99.90
9329;DHT22;4703;48.748;19.142;2022-10-16T17:44:03;15.00;99.90
9329;DHT22;4703;48.748;19.142;2022-10-16T17:46:31;13.20;99.90
9329;DHT22;4703;48.748;19.142;2022-10-16T17:49:05;13.10;99.90
9329;DHT22;4703;48.748;19.142;2022-10-16T17:51:32;13.00;99.90
9329;DHT22;4703;48.748;19.142;2022-10-16T17:54:00;12.90;99.90
9329;DHT22;4703;48.748;19.142;2022-10-16T17:56:28;13.50;99.90
9329;DHT22;4703;48.748;19.142;2022-10-16T17:58:57;13.90;99.90
9329;DHT22;4703;48.748;19.142;2022-10-16T18:01:29;12.70;99.90